createdAt,value
2019-04-30T00:02:15.887Z,101401.98
2019-04-30T00:04:49.309Z,101398.35
2019-04-30T00:07:21.248Z,101396.89
2019-04-30T00:09:53.930Z,101401.47
2019-04-30T00:12:22.163Z,101405.23
2019-04-30T00:14:54.926Z,101404.61
2019-04-30T00:17:28.186Z,101400.19
2019-04-30T00:19:59.894Z,101400.84
2019-04-30T00:22:34.199Z,101396.84
2019-04-30T00:25:02.937Z,101397.13
2019-04-30T00:27:31.679Z,101394.34
2019-04-30T00:30:04.849Z,101394.52
2019-04-30T00:32:39.300Z,101397.77
2019-04-30T00:35:07.159Z,101398.67
2019-04-30T00:37:35.528Z,101388.23
2019-04-30T00:40:05.988Z,101383.56
2019-04-30T00:42:35.778Z,101386.70
2019-04-30T00:45:12.130Z,101383.25
2019-04-30T00:47:44.510Z,101383.29
2019-04-30T00:50:15.001Z,101383.82
2019-04-30T00:52:45.759Z,101377.05
2019-04-30T00:55:15.017Z,101379.83
2019-04-30T00:57:47.596Z,101376.94
2019-04-30T01:00:19.735Z,101374.80
2019-04-30T01:02:53.122Z,101373.12
2019-04-30T01:05:25.480Z,101375.92
2019-04-30T01:07:55.070Z,101368.12
2019-04-30T01:10:27.178Z,101365.98
2019-04-30T01:13:01.843Z,101369.86
2019-04-30T01:15:26.558Z,101364.73
2019-04-30T01:17:55.513Z,101359.72
2019-04-30T01:20:31.104Z,101359.84
2019-04-30T01:22:55.021Z,101358.65
2019-04-30T01:25:28.753Z,101366.75
2019-04-30T01:27:58.557Z,101355.15
2019-04-30T01:30:28.480Z,101365.27
2019-04-30T01:32:58.818Z,101361.23
2019-04-30T01:35:31.290Z,101362.52
2019-04-30T01:37:59.619Z,101359.13
2019-04-30T01:40:29.143Z,101360.78
2019-04-30T01:42:59.409Z,101370.93
2019-04-30T01:45:31.626Z,101368.52
2019-04-30T01:48:08.466Z,101373.30
2019-04-30T01:50:29.584Z,101367.64
2019-04-30T01:52:59.127Z,101368.50
2019-04-30T01:55:45.407Z,101373.27
2019-04-30T01:58:21.052Z,101370.19
2019-04-30T02:00:53.105Z,101369.23
2019-04-30T02:03:21.852Z,101375.42
2019-04-30T02:05:50.777Z,101370.76
2019-04-30T02:08:19.773Z,101375.61
2019-04-30T02:10:51.360Z,101370.43
2019-04-30T02:13:19.980Z,101365.52
2019-04-30T02:15:51.557Z,101367.16
2019-04-30T02:18:20.460Z,101374.56
2019-04-30T02:20:50.646Z,101370.93
2019-04-30T02:23:19.769Z,101366.88
2019-04-30T02:25:48.966Z,101367.21
2019-04-30T02:28:19.535Z,101371.07
2019-04-30T02:30:50.560Z,101373.21
2019-04-30T02:33:19.942Z,101375.02
2019-04-30T02:36:03.831Z,101377.73
2019-04-30T02:38:34.360Z,101371.70
2019-04-30T02:41:04.244Z,101375.82
2019-04-30T02:43:33.357Z,101380.34
2019-04-30T02:46:02.538Z,101377.38
2019-04-30T02:48:33.162Z,101375.61
2019-04-30T02:51:03.762Z,101379.84
2019-04-30T02:54:29.480Z,101371.84
2019-04-30T02:57:11.786Z,101373.93
2019-04-30T03:00:00.001Z,101368.09
2019-04-30T03:02:33.075Z,101372.38
2019-04-30T03:05:01.842Z,101369.57
2019-04-30T03:07:32.608Z,101370.43
2019-04-30T03:10:01.588Z,101368.69
2019-04-30T03:12:33.617Z,101363.79
2019-04-30T03:15:03.296Z,101362.87
2019-04-30T03:17:47.346Z,101367.64
2019-04-30T03:20:46.690Z,101361.59
2019-04-30T03:23:15.632Z,101361.59
2019-04-30T03:25:50.083Z,101371.25
2019-04-30T03:28:20.144Z,101360.33
2019-04-30T03:30:51.887Z,101370.06
2019-04-30T03:33:22.904Z,101365.75
2019-04-30T03:35:54.826Z,101364.80
2019-04-30T03:38:25.356Z,101367.86
2019-04-30T03:40:56.032Z,101365.69
2019-04-30T03:43:24.637Z,101370.00
2019-04-30T03:45:53.584Z,101363.33
2019-04-30T03:48:22.136Z,101360.70
2019-04-30T03:50:56.566Z,101365.07
2019-04-30T03:53:21.374Z,101359.32
2019-04-30T03:55:51.371Z,101361.09
2019-04-30T03:58:21.462Z,101359.84
2019-04-30T04:01:10.151Z,101357.70
2019-04-30T04:04:00.370Z,101352.01
2019-04-30T04:06:34.942Z,101359.53
2019-04-30T04:09:22.027Z,101367.43
2019-04-30T04:11:51.803Z,101363.05
2019-04-30T04:14:25.927Z,101363.20
2019-04-30T04:16:59.967Z,101373.79
2019-04-30T04:19:29.212Z,101372.07
2019-04-30T04:22:00.151Z,101376.51
2019-04-30T04:24:30.393Z,101376.84
2019-04-30T04:27:02.227Z,101382.94
2019-04-30T04:29:32.397Z,101381.02
2019-04-30T04:32:03.959Z,101379.42
2019-04-30T04:34:32.881Z,101377.19
2019-04-30T04:37:02.864Z,101375.35
2019-04-30T04:39:33.705Z,101379.57
2019-04-30T04:42:02.321Z,101383.69
2019-04-30T04:44:31.337Z,101382.20
2019-04-30T04:47:00.315Z,101388.16
2019-04-30T04:49:31.729Z,101389.77
2019-04-30T04:52:00.683Z,101394.25
2019-04-30T04:54:30.126Z,101390.66
2019-04-30T04:57:13.974Z,101390.16
2019-04-30T04:59:34.732Z,101397.38
2019-04-30T05:02:25.521Z,101392.35
2019-04-30T05:04:56.893Z,101389.56
2019-04-30T05:07:25.949Z,101388.87
2019-04-30T05:09:54.672Z,101385.84
2019-04-30T05:12:23.278Z,101388.12
2019-04-30T05:14:53.533Z,101388.12
2019-04-30T05:17:22.128Z,101383.59
2019-04-30T05:19:51.392Z,101386.50
2019-04-30T05:22:21.650Z,101391.66
2019-04-30T05:24:50.221Z,101390.77
2019-04-30T05:27:19.796Z,101395.07
2019-04-30T05:29:49.875Z,101398.98
2019-04-30T05:32:19.746Z,101403.48
2019-04-30T05:34:49.681Z,101403.91
2019-04-30T05:37:18.792Z,101409.30
2019-04-30T05:39:48.919Z,101398.64
2019-04-30T05:42:19.833Z,101400.92
2019-04-30T05:44:50.785Z,101401.81
2019-04-30T05:47:19.754Z,101406.05
2019-04-30T05:49:50.647Z,101414.30
2019-04-30T05:52:21.164Z,101412.74
2019-04-30T05:54:50.070Z,101411.81
2019-04-30T05:57:19.720Z,101411.99
2019-04-30T05:59:48.888Z,101410.03
2019-04-30T06:02:21.052Z,101407.17
2019-04-30T06:04:51.012Z,101405.41
2019-04-30T06:07:21.986Z,101408.11
2019-04-30T06:09:59.763Z,101405.22
2019-04-30T06:12:46.257Z,101407.30
2019-04-30T06:15:22.140Z,101412.41
2019-04-30T06:18:00.726Z,101417.03
2019-04-30T06:20:22.692Z,101406.62
2019-04-30T06:22:52.174Z,101416.05
2019-04-30T06:25:31.859Z,101416.63
2019-04-30T06:27:51.813Z,101420.73
2019-04-30T06:30:23.858Z,101420.64
2019-04-30T06:32:52.906Z,101416.29
2019-04-30T06:35:21.745Z,101422.69
2019-04-30T06:37:52.535Z,101417.94
2019-04-30T06:40:21.268Z,101411.70
2019-04-30T06:42:50.180Z,101413.12
2019-04-30T06:45:21.316Z,101417.70
2019-04-30T06:47:50.505Z,101412.35
2019-04-30T06:50:19.498Z,101423.63
2019-04-30T06:52:56.374Z,101419.97
2019-04-30T06:55:19.401Z,101423.97
2019-04-30T06:57:50.375Z,101421.64
2019-04-30T07:00:20.838Z,101420.39
2019-04-30T07:02:49.771Z,101423.94
2019-04-30T07:05:18.685Z,101425.61
2019-04-30T07:08:09.299Z,101425.55
2019-04-30T07:10:36.666Z,101432.61
2019-04-30T07:13:29.675Z,101427.47
2019-04-30T07:15:58.710Z,101417.53
2019-04-30T07:18:29.635Z,101417.53
2019-04-30T07:21:00.273Z,101422.66
2019-04-30T07:23:29.210Z,101416.37
2019-04-30T07:25:59.610Z,101416.37
2019-04-30T07:28:46.547Z,101416.37
2019-04-30T07:31:13.868Z,101422.78
2019-04-30T07:33:40.890Z,101421.22
2019-04-30T07:36:10.008Z,101420.74
2019-04-30T07:38:45.546Z,101423.92
2019-04-30T07:41:12.164Z,101430.40
2019-04-30T07:43:40.747Z,101431.16
2019-04-30T07:46:11.502Z,101429.59
2019-04-30T07:48:42.096Z,101420.24
2019-04-30T07:51:12.886Z,101438.83
2019-04-30T07:53:43.632Z,101438.83
2019-04-30T07:56:25.721Z,101440.14
2019-04-30T07:58:44.399Z,101433.36
2019-04-30T08:01:16.043Z,101426.61
2019-04-30T08:04:08.881Z,101437.45
2019-04-30T08:06:40.003Z,101442.37
2019-04-30T08:09:11.280Z,101432.95
2019-04-30T08:11:43.907Z,101433.45
2019-04-30T08:14:12.562Z,101449.41
2019-04-30T08:16:44.717Z,101440.63
2019-04-30T08:19:13.472Z,101439.86
2019-04-30T08:21:45.964Z,101439.20
2019-04-30T08:24:14.524Z,101446.09
2019-04-30T08:26:43.670Z,101439.53
2019-04-30T08:29:12.580Z,101438.61
2019-04-30T08:31:42.774Z,101439.34
2019-04-30T08:34:11.380Z,101445.38
2019-04-30T08:36:40.801Z,101443.05
2019-04-30T08:39:10.699Z,101440.61
2019-04-30T08:41:40.816Z,101447.25
2019-04-30T08:44:12.778Z,101444.48
2019-04-30T08:46:44.839Z,101446.09
2019-04-30T08:49:14.040Z,101445.53
2019-04-30T08:51:42.970Z,101439.23
2019-04-30T08:54:11.534Z,101437.30
2019-04-30T08:56:40.258Z,101438.83
2019-04-30T08:59:11.408Z,101437.30
2019-04-30T09:01:41.841Z,101437.98
2019-04-30T09:04:10.582Z,101435.45
2019-04-30T09:06:39.729Z,101430.23
2019-04-30T09:09:24.166Z,101437.56
2019-04-30T09:11:56.036Z,101428.32
2019-04-30T09:14:45.538Z,101425.86
2019-04-30T09:17:14.449Z,101422.25
2019-04-30T09:19:44.479Z,101424.17
2019-04-30T09:22:15.235Z,101428.98
2019-04-30T09:24:45.556Z,101421.44
2019-04-30T09:27:15.562Z,101428.94
2019-04-30T09:29:46.266Z,101425.48
2019-04-30T09:32:19.109Z,101426.90
2019-04-30T09:34:48.963Z,101422.05
2019-04-30T09:37:18.763Z,101422.40
2019-04-30T09:39:49.266Z,101418.98
2019-04-30T09:42:19.663Z,101425.54
2019-04-30T09:44:54.242Z,101424.47
2019-04-30T09:47:22.204Z,101428.54
2019-04-30T09:49:51.529Z,101420.33
2019-04-30T09:52:21.870Z,101421.88
2019-04-30T09:54:52.719Z,101424.31
2019-04-30T09:57:21.500Z,101422.07
2019-04-30T09:59:51.750Z,101417.66
2019-04-30T10:02:21.909Z,101416.24
2019-04-30T10:04:52.703Z,101415.84
2019-04-30T10:07:21.776Z,101410.33
2019-04-30T10:09:51.051Z,101415.07
2019-04-30T10:12:19.738Z,101402.55
2019-04-30T10:14:49.649Z,101398.56
2019-04-30T10:17:39.058Z,101403.18
2019-04-30T10:20:10.744Z,101397.06
2019-04-30T10:22:40.840Z,101392.70
2019-04-30T10:25:09.685Z,101391.48
2019-04-30T10:27:39.628Z,101404.48
2019-04-30T10:30:12.465Z,101388.91
2019-04-30T10:32:41.034Z,101389.20
2019-04-30T10:35:09.587Z,101379.44
2019-04-30T10:37:38.891Z,101338.52
2019-04-30T10:40:10.364Z,101377.95
2019-04-30T10:42:40.596Z,101374.98
2019-04-30T10:45:09.984Z,101366.39
2019-04-30T10:47:39.803Z,101364.09
2019-04-30T10:50:09.877Z,101370.14
2019-04-30T10:52:39.310Z,101360.62
2019-04-30T10:55:09.367Z,101363.38
2019-04-30T10:57:39.616Z,101351.91
2019-04-30T11:00:15.646Z,101356.43
2019-04-30T11:02:44.227Z,101359.20
2019-04-30T11:05:18.783Z,101361.05
2019-04-30T11:07:49.728Z,101358.27
2019-04-30T11:10:20.445Z,101354.26
2019-04-30T11:12:49.025Z,101360.27
2019-04-30T11:15:20.636Z,101358.31
2019-04-30T11:17:49.614Z,101352.92
2019-04-30T11:20:21.736Z,101358.54
2019-04-30T11:22:49.468Z,101349.63
2019-04-30T11:25:24.571Z,101351.67
2019-04-30T11:27:54.278Z,101343.14
2019-04-30T11:30:24.415Z,101341.84
2019-04-30T11:32:57.400Z,101343.80
2019-04-30T11:35:26.139Z,101341.03
2019-04-30T11:37:55.088Z,101338.86
2019-04-30T11:40:34.465Z,101330.64
2019-04-30T11:43:03.607Z,101331.12
2019-04-30T11:46:18.698Z,101327.74
2019-04-30T11:48:48.988Z,101323.75
2019-04-30T11:51:19.395Z,101324.81
2019-04-30T11:53:49.063Z,101314.44
2019-04-30T11:56:19.184Z,101303.73
2019-04-30T11:58:51.908Z,101310.22
2019-04-30T12:01:23.016Z,101299.19
2019-04-30T12:03:53.160Z,101292.50
2019-04-30T12:06:24.063Z,101293.86
2019-04-30T12:09:09.147Z,101287.87
2019-04-30T12:11:37.889Z,101288.77
2019-04-30T12:14:07.926Z,101284.85
2019-04-30T12:16:36.682Z,101284.38
2019-04-30T12:19:05.349Z,101278.80
2019-04-30T12:21:33.888Z,101279.38
2019-04-30T12:24:05.928Z,101273.47
2019-04-30T12:26:34.838Z,101281.71
2019-04-30T12:29:03.803Z,101278.03
2019-04-30T12:31:34.084Z,101272.41
2019-04-30T12:34:02.662Z,101272.14
2019-04-30T12:36:35.006Z,101267.16
2019-04-30T12:39:06.315Z,101259.02
2019-04-30T12:41:34.910Z,101259.69
2019-04-30T12:44:08.118Z,101261.05
2019-04-30T12:46:39.060Z,101260.16
2019-04-30T12:49:11.460Z,101247.92
2019-04-30T12:52:19.653Z,101251.27
2019-04-30T12:55:22.495Z,101247.03
2019-04-30T12:57:58.838Z,101253.27
2019-04-30T13:00:24.607Z,101245.17
2019-04-30T13:02:56.715Z,101250.13
2019-04-30T13:05:29.634Z,101242.58
2019-04-30T13:08:00.162Z,101231.14
2019-04-30T13:10:29.246Z,101239.88
2019-04-30T13:12:59.913Z,101232.48
2019-04-30T13:15:31.087Z,101219.09
2019-04-30T13:18:01.293Z,101225.34
2019-04-30T13:20:29.854Z,101220.19
2019-04-30T13:23:00.856Z,101217.12
2019-04-30T13:25:36.819Z,101219.65
2019-04-30T13:28:11.978Z,101209.81
2019-04-30T13:30:41.356Z,101205.27
2019-04-30T13:33:22.555Z,101203.72
2019-04-30T13:35:52.985Z,101197.37
2019-04-30T13:38:29.163Z,101194.47
2019-04-30T13:41:08.878Z,101193.89
2019-04-30T13:44:04.408Z,101193.27
2019-04-30T13:46:34.393Z,101193.98
2019-04-30T13:49:08.050Z,101186.97
2019-04-30T13:51:35.866Z,101179.66
2019-04-30T13:54:04.654Z,101170.72
2019-04-30T13:56:33.536Z,101179.81
2019-04-30T13:59:02.454Z,101170.34
2019-04-30T14:01:33.693Z,101174.45
2019-04-30T14:04:24.520Z,101171.43
2019-04-30T14:07:05.131Z,101171.54
2019-04-30T14:09:35.726Z,101170.31
2019-04-30T14:12:04.291Z,101167.58
2019-04-30T14:14:33.232Z,101163.72
2019-04-30T14:17:06.365Z,101156.18
2019-04-30T14:19:38.492Z,101155.89
2019-04-30T14:22:08.949Z,101152.94
2019-04-30T14:24:40.909Z,101150.56
2019-04-30T14:27:09.973Z,101151.03
2019-04-30T14:29:39.573Z,101144.66
2019-04-30T14:32:11.239Z,101148.13
2019-04-30T14:34:42.878Z,101153.85
2019-04-30T14:37:10.775Z,101151.94
2019-04-30T14:39:40.391Z,101151.31
2019-04-30T14:42:11.072Z,101150.07
2019-04-30T14:44:40.643Z,101142.60
2019-04-30T14:47:22.401Z,101142.25
2019-04-30T14:50:12.467Z,101139.46
2019-04-30T14:52:48.303Z,101136.53
2019-04-30T14:55:39.656Z,101136.42
2019-04-30T14:58:34.250Z,101131.81
2019-04-30T15:01:27.131Z,101137.26
2019-04-30T15:03:59.321Z,101142.77
2019-04-30T15:06:30.627Z,101127.73
2019-04-30T15:08:59.213Z,101136.05
2019-04-30T15:11:30.170Z,101126.92
2019-04-30T15:13:59.212Z,101129.73
2019-04-30T15:16:29.165Z,101128.27
2019-04-30T15:18:59.430Z,101132.72
2019-04-30T15:21:29.671Z,101126.84
2019-04-30T15:24:11.972Z,101122.61
2019-04-30T15:26:41.827Z,101116.66
2019-04-30T15:29:14.407Z,101126.66
2019-04-30T15:31:42.633Z,101122.50
2019-04-30T15:34:13.983Z,101122.41
2019-04-30T15:36:42.719Z,101117.59
2019-04-30T15:39:33.093Z,101122.83
2019-04-30T15:42:03.997Z,101124.69
2019-04-30T15:44:40.143Z,101117.67
2019-04-30T15:47:05.249Z,101116.41
2019-04-30T15:49:33.880Z,101119.25
2019-04-30T15:52:11.067Z,101116.76
2019-04-30T15:54:41.329Z,101120.46
2019-04-30T15:57:10.254Z,101110.14
2019-04-30T15:59:46.984Z,101113.88
2019-04-30T16:02:53.209Z,101109.55
2019-04-30T16:05:30.813Z,101104.28
2019-04-30T16:08:19.048Z,101109.44
2019-04-30T16:11:12.775Z,101106.22
2019-04-30T16:14:23.726Z,101109.82
2019-04-30T16:17:07.062Z,101099.24
2019-04-30T16:19:35.637Z,101105.30
2019-04-30T16:22:06.131Z,101100.27
2019-04-30T16:24:35.126Z,101100.83
2019-04-30T16:27:03.748Z,101098.58
2019-04-30T16:29:34.631Z,101096.14
2019-04-30T16:32:03.233Z,101093.57
2019-04-30T16:34:33.354Z,101080.91
2019-04-30T16:37:01.944Z,101088.30
2019-04-30T16:39:32.874Z,101086.67
2019-04-30T16:42:01.806Z,101094.43
2019-04-30T16:44:32.593Z,101081.58
2019-04-30T16:47:13.061Z,101079.75
2019-04-30T16:49:38.697Z,101077.13
2019-04-30T16:52:09.154Z,101076.46
2019-04-30T16:54:39.568Z,101080.87
2019-04-30T16:57:10.308Z,101079.14
2019-04-30T16:59:41.909Z,101083.03
2019-04-30T17:02:14.563Z,101077.14
2019-04-30T17:04:58.074Z,101074.71
2019-04-30T17:07:56.420Z,101076.05
2019-04-30T17:10:32.131Z,101079.02
2019-04-30T17:13:19.573Z,101077.56
2019-04-30T17:15:49.344Z,101077.85
2019-04-30T17:18:19.098Z,101072.66
2019-04-30T17:20:49.095Z,101077.22
2019-04-30T17:23:19.299Z,101073.62
2019-04-30T17:25:48.114Z,101071.36
2019-04-30T17:28:18.664Z,101071.25
2019-04-30T17:30:49.016Z,101075.48
2019-04-30T17:33:17.336Z,101069.53
2019-04-30T17:35:49.856Z,101072.14
2019-04-30T17:38:21.292Z,101069.42
2019-04-30T17:40:49.986Z,101079.75
2019-04-30T17:43:18.549Z,101075.27
2019-04-30T17:45:49.195Z,101072.77
2019-04-30T17:48:17.631Z,101072.24
2019-04-30T17:50:46.763Z,101071.71
2019-04-30T17:53:15.342Z,101076.95
2019-04-30T17:55:43.944Z,101079.80
2019-04-30T17:58:12.934Z,101082.57
2019-04-30T18:00:45.592Z,101078.91
2019-04-30T18:03:14.436Z,101077.84
2019-04-30T18:05:42.992Z,101070.02
2019-04-30T18:08:11.566Z,101082.56
2019-04-30T18:10:40.891Z,101075.60
2019-04-30T18:13:09.793Z,101070.62
2019-04-30T18:15:38.364Z,101064.79
2019-04-30T18:18:15.629Z,101076.72
2019-04-30T18:20:51.541Z,101082.16
2019-04-30T18:23:51.244Z,101081.67
2019-04-30T18:26:19.809Z,101083.11
2019-04-30T18:28:48.690Z,101082.16
2019-04-30T18:31:20.688Z,101079.44
2019-04-30T18:33:51.475Z,101086.90
2019-04-30T18:36:19.591Z,101091.77
2019-04-30T18:38:50.310Z,101091.09
2019-04-30T18:41:19.412Z,101101.09
2019-04-30T18:43:48.754Z,101094.19
2019-04-30T18:46:19.149Z,101093.67
2019-04-30T18:48:49.419Z,101093.36
2019-04-30T18:51:35.878Z,101099.74
2019-04-30T18:53:50.934Z,101100.53
2019-04-30T18:56:21.840Z,101097.55
2019-04-30T18:58:51.038Z,101104.42
2019-04-30T19:01:19.941Z,101102.17
2019-04-30T19:03:49.260Z,101096.78
2019-04-30T19:06:25.903Z,101105.06
2019-04-30T19:09:04.082Z,101104.56
2019-04-30T19:11:39.497Z,101103.00
2019-04-30T19:14:45.543Z,101103.69
2019-04-30T19:17:30.874Z,101114.20
2019-04-30T19:20:18.787Z,101119.17
2019-04-30T19:22:47.838Z,101121.59
2019-04-30T19:25:19.131Z,101119.66
2019-04-30T19:27:48.283Z,101125.67
2019-04-30T19:30:19.120Z,101128.52
2019-04-30T19:32:49.162Z,101127.91
2019-04-30T19:35:18.761Z,101132.77
2019-04-30T19:37:48.700Z,101127.42
2019-04-30T19:40:19.022Z,101129.33
2019-04-30T19:42:50.777Z,101134.00
2019-04-30T19:45:21.485Z,101133.61
2019-04-30T19:47:50.068Z,101132.02
2019-04-30T19:50:22.067Z,101132.73
2019-04-30T19:52:52.675Z,101131.14
2019-04-30T19:55:24.672Z,101128.55
2019-04-30T19:57:53.266Z,101127.23
2019-04-30T20:00:21.923Z,101123.36
2019-04-30T20:02:50.664Z,101122.58
2019-04-30T20:05:19.535Z,101117.38
2019-04-30T20:07:49.341Z,101129.07
2019-04-30T20:10:19.550Z,101130.19
2019-04-30T20:12:49.920Z,101131.14
2019-04-30T20:15:21.727Z,101133.23
2019-04-30T20:17:49.905Z,101128.64
2019-04-30T20:20:18.946Z,101128.05
2019-04-30T20:22:47.626Z,101129.63
2019-04-30T20:25:16.369Z,101135.34
2019-04-30T20:27:45.473Z,101133.62
2019-04-30T20:30:14.438Z,101132.42
2019-04-30T20:32:43.051Z,101128.31
2019-04-30T20:35:13.274Z,101129.70
2019-04-30T20:38:04.154Z,101123.42
2019-04-30T20:40:43.275Z,101128.16
2019-04-30T20:43:08.455Z,101127.05
2019-04-30T20:45:36.651Z,101126.81
2019-04-30T20:48:05.241Z,101124.30
2019-04-30T20:50:34.001Z,101128.09
2019-04-30T20:53:02.583Z,101125.27
2019-04-30T20:55:31.329Z,101121.63
2019-04-30T20:57:59.915Z,101114.18
2019-04-30T21:00:29.011Z,101118.18
2019-04-30T21:02:59.739Z,101117.36
2019-04-30T21:05:29.943Z,101118.73
2019-04-30T21:08:00.074Z,101124.77
2019-04-30T21:10:29.687Z,101123.94
2019-04-30T21:12:58.401Z,101119.73
2019-04-30T21:15:29.727Z,101119.73
2019-04-30T21:17:58.774Z,101116.05
2019-04-30T21:20:29.865Z,101105.01
2019-04-30T21:23:00.011Z,101105.01
2019-04-30T21:25:32.055Z,101123.56
2019-04-30T21:28:03.177Z,101123.56
2019-04-30T21:30:32.482Z,101121.05
2019-04-30T21:33:22.378Z,101116.84
2019-04-30T21:35:55.499Z,101123.47
2019-04-30T21:38:24.134Z,101123.47
2019-04-30T21:40:52.678Z,101120.70
2019-04-30T21:43:23.479Z,101111.73
2019-04-30T21:45:52.048Z,101112.61
2019-04-30T21:48:20.620Z,101108.34
2019-04-30T21:50:49.771Z,101114.55
2019-04-30T21:53:19.591Z,101112.84
2019-04-30T21:55:49.694Z,101111.73
2019-04-30T21:58:20.459Z,101111.73
2019-04-30T22:01:07.358Z,101115.17
2019-04-30T22:03:36.095Z,101115.17
2019-04-30T22:06:04.674Z,101118.13
2019-04-30T22:08:33.439Z,101114.34
2019-04-30T22:11:05.190Z,101117.03
2019-04-30T22:13:33.753Z,101117.88
2019-04-30T22:16:02.418Z,101122.84
2019-04-30T22:18:34.249Z,101117.86
2019-04-30T22:21:02.837Z,101117.86
2019-04-30T22:23:31.585Z,101119.67
2019-04-30T22:26:00.180Z,101112.70
2019-04-30T22:28:29.030Z,101117.90
2019-04-30T22:30:58.591Z,101117.90
2019-04-30T22:33:29.205Z,101117.34
2019-04-30T22:36:13.158Z,101114.09
2019-04-30T22:39:00.093Z,101107.71
2019-04-30T22:41:29.821Z,101107.56
2019-04-30T22:44:01.480Z,101107.66
2019-04-30T22:46:30.133Z,101107.66
2019-04-30T22:48:58.709Z,101110.08
2019-04-30T22:51:29.292Z,101109.81
2019-04-30T22:53:57.853Z,101109.81
2019-04-30T22:56:26.615Z,101106.05
2019-04-30T22:58:55.194Z,101102.00
2019-04-30T23:01:45.083Z,101103.22
2019-04-30T23:04:19.479Z,101107.87
2019-04-30T23:06:48.453Z,101106.18
2019-04-30T23:09:17.794Z,101102.00
2019-04-30T23:11:46.808Z,101113.31
2019-04-30T23:14:17.364Z,101113.31
2019-04-30T23:16:46.306Z,101108.33
2019-04-30T23:19:15.096Z,101105.50
2019-04-30T23:21:43.837Z,101099.16
2019-04-30T23:24:12.386Z,101092.70
2019-04-30T23:26:40.948Z,101082.25
2019-04-30T23:29:09.511Z,101082.25
2019-04-30T23:31:38.081Z,101088.60
2019-04-30T23:34:17.420Z,101092.94
2019-04-30T23:36:37.396Z,101085.55
2019-04-30T23:39:06.027Z,101078.30
2019-04-30T23:41:34.605Z,101079.72
2019-04-30T23:44:03.152Z,101072.19
2019-04-30T23:46:31.739Z,101074.67
2019-04-30T23:49:00.601Z,101080.78
2019-04-30T23:51:29.202Z,101079.89
2019-04-30T23:53:59.120Z,101073.44
2019-04-30T23:56:27.704Z,101068.64
2019-04-30T23:58:56.280Z,101065.06
